createdAt,value
2019-02-07T00:00:49.218Z,99.90
2019-02-07T00:03:18.509Z,99.90
2019-02-07T00:05:47.749Z,99.90
2019-02-07T00:08:17.000Z,99.90
2019-02-07T00:10:46.361Z,99.90
2019-02-07T00:13:15.713Z,99.90
2019-02-07T00:15:44.964Z,99.90
2019-02-07T00:18:14.339Z,99.90
2019-02-07T00:20:43.835Z,99.90
2019-02-07T00:23:13.121Z,99.90
2019-02-07T00:25:42.452Z,99.90
2019-02-07T00:28:11.756Z,99.90
2019-02-07T00:30:40.952Z,99.90
2019-02-07T00:33:10.130Z,99.90
2019-02-07T00:35:39.489Z,99.90
2019-02-07T00:38:10.404Z,99.90
2019-02-07T00:40:39.613Z,99.90
2019-02-07T00:43:08.806Z,99.90
2019-02-07T00:45:39.680Z,99.90
2019-02-07T00:48:08.858Z,99.90
2019-02-07T00:50:38.078Z,99.90
2019-02-07T00:53:07.807Z,99.90
2019-02-07T00:55:37.033Z,99.90
2019-02-07T00:58:06.296Z,99.90
2019-02-07T01:00:36.567Z,99.90
2019-02-07T01:03:06.095Z,99.90
2019-02-07T01:05:35.330Z,99.90
2019-02-07T01:08:05.477Z,99.90
2019-02-07T01:10:35.408Z,99.90
2019-02-07T01:13:05.686Z,99.90
2019-02-07T01:15:34.956Z,99.90
2019-02-07T01:18:04.252Z,99.90
2019-02-07T01:20:33.534Z,99.90
2019-02-07T01:23:02.728Z,99.90
2019-02-07T01:25:31.975Z,99.90
2019-02-07T01:28:01.252Z,99.90
2019-02-07T01:30:30.481Z,99.90
2019-02-07T01:32:59.681Z,99.90
2019-02-07T01:35:28.865Z,99.90
2019-02-07T01:37:58.062Z,99.90
2019-02-07T01:40:27.380Z,99.90
2019-02-07T01:42:56.649Z,99.90
2019-02-07T01:45:25.871Z,99.90
2019-02-07T01:47:55.057Z,99.90
2019-02-07T01:50:28.704Z,99.90
2019-02-07T01:52:57.997Z,99.90
2019-02-07T01:55:27.240Z,99.90
2019-02-07T01:57:58.153Z,99.90
2019-02-07T02:00:27.395Z,99.90
2019-02-07T02:02:56.655Z,99.90
2019-02-07T02:05:25.936Z,99.90
2019-02-07T02:07:55.119Z,99.90
2019-02-07T02:10:28.445Z,99.90
2019-02-07T02:12:57.730Z,99.90
2019-02-07T02:15:26.933Z,99.90
2019-02-07T02:17:56.301Z,99.90
2019-02-07T02:20:26.006Z,99.90
2019-02-07T02:22:55.730Z,99.90
2019-02-07T02:25:24.966Z,99.90
2019-02-07T02:27:54.226Z,99.90
2019-02-07T02:30:26.195Z,99.90
2019-02-07T02:32:55.436Z,99.90
2019-02-07T02:35:24.982Z,99.90
2019-02-07T02:37:54.191Z,99.90
2019-02-07T02:40:23.482Z,99.90
2019-02-07T02:42:52.820Z,99.90
2019-02-07T02:45:23.494Z,99.90
2019-02-07T02:47:52.675Z,99.90
2019-02-07T02:50:22.377Z,99.90
2019-02-07T02:52:51.601Z,99.90
2019-02-07T02:55:22.514Z,99.90
2019-02-07T02:57:51.683Z,99.90
2019-02-07T03:00:22.583Z,99.90
2019-02-07T03:03:10.129Z,99.90
2019-02-07T03:05:46.795Z,99.90
2019-02-07T03:08:17.704Z,99.90
2019-02-07T03:11:04.911Z,99.90
2019-02-07T03:13:52.303Z,99.90
2019-02-07T03:16:35.569Z,99.90
2019-02-07T03:19:19.656Z,99.90
2019-02-07T03:21:50.538Z,99.90
2019-02-07T03:24:24.006Z,99.90
2019-02-07T03:27:11.203Z,99.90
2019-02-07T03:29:44.947Z,99.90
2019-02-07T03:32:32.003Z,99.90
2019-02-07T03:35:07.368Z,99.90
2019-02-07T03:37:47.012Z,99.90
2019-02-07T03:40:20.382Z,99.90
2019-02-07T03:43:09.295Z,99.90
2019-02-07T03:46:02.891Z,99.90
2019-02-07T03:48:47.203Z,99.90
2019-02-07T03:51:30.049Z,99.90
2019-02-07T03:54:06.553Z,99.90
2019-02-07T03:56:49.395Z,99.90
2019-02-07T03:59:38.545Z,99.90
2019-02-07T04:02:27.905Z,99.90
2019-02-07T04:04:59.506Z,99.90
2019-02-07T04:07:40.822Z,99.90
2019-02-07T04:10:14.319Z,99.90
2019-02-07T04:13:01.251Z,99.90
2019-02-07T04:15:47.259Z,99.90
2019-02-07T04:18:18.175Z,99.90
2019-02-07T04:20:49.149Z,99.90
2019-02-07T04:23:20.266Z,99.90
2019-02-07T04:25:56.762Z,99.90
2019-02-07T04:28:30.615Z,99.90
2019-02-07T04:31:04.315Z,99.90
2019-02-07T04:33:50.745Z,99.90
2019-02-07T04:36:23.293Z,99.90
2019-02-07T04:39:10.645Z,99.90
2019-02-07T04:41:47.248Z,99.90
2019-02-07T04:44:34.312Z,99.90
2019-02-07T04:47:07.860Z,99.90
2019-02-07T04:49:42.026Z,99.90
2019-02-07T04:52:12.869Z,99.90
2019-02-07T04:55:00.395Z,99.90
2019-02-07T04:57:31.435Z,99.90
2019-02-07T05:00:05.488Z,99.90
2019-02-07T05:02:36.762Z,99.90
2019-02-07T05:05:09.320Z,99.90
2019-02-07T05:07:45.844Z,99.90
2019-02-07T05:10:33.194Z,99.90
2019-02-07T05:13:13.213Z,99.90
2019-02-07T05:15:46.928Z,99.90
2019-02-07T05:18:24.032Z,99.90
2019-02-07T05:21:06.609Z,99.90
2019-02-07T05:23:37.449Z,99.90
2019-02-07T05:26:24.805Z,99.90
2019-02-07T05:29:10.866Z,99.90
2019-02-07T05:31:41.762Z,99.90
2019-02-07T05:34:12.700Z,99.90
2019-02-07T05:36:43.570Z,99.90
2019-02-07T05:39:33.449Z,99.90
2019-02-07T05:42:07.186Z,99.90
2019-02-07T05:44:38.093Z,99.90
2019-02-07T05:47:25.425Z,99.90
2019-02-07T05:50:12.892Z,99.90
2019-02-07T05:52:43.741Z,99.90
2019-02-07T05:55:20.580Z,99.90
2019-02-07T05:57:51.441Z,99.90
2019-02-07T06:00:24.889Z,99.90
2019-02-07T06:02:58.426Z,99.90
2019-02-07T06:05:45.896Z,99.90
2019-02-07T06:08:16.806Z,99.90
2019-02-07T06:10:48.271Z,99.90
2019-02-07T06:13:22.138Z,99.90
2019-02-07T06:16:04.954Z,99.90
2019-02-07T06:18:44.598Z,99.90
2019-02-07T06:21:18.156Z,99.90
2019-02-07T06:23:51.802Z,99.90
2019-02-07T06:26:40.435Z,99.90
2019-02-07T06:29:27.621Z,99.90
2019-02-07T06:32:14.940Z,99.90
2019-02-07T06:34:51.970Z,99.90
2019-02-07T06:37:39.305Z,99.90
2019-02-07T06:40:31.858Z,99.90
2019-02-07T06:43:02.090Z,98.80
2019-02-07T06:45:39.001Z,96.90
2019-02-07T06:48:12.497Z,97.40
2019-02-07T06:50:55.479Z,96.60
2019-02-07T06:53:41.389Z,96.00
2019-02-07T06:56:24.190Z,95.30
2019-02-07T06:58:55.392Z,94.60
2019-02-07T07:01:26.313Z,94.80
2019-02-07T07:03:57.840Z,95.20
2019-02-07T07:06:45.133Z,95.30
2019-02-07T07:09:27.591Z,96.00
2019-02-07T07:12:00.939Z,96.00
2019-02-07T07:14:33.398Z,96.50
2019-02-07T07:17:10.050Z,96.40
2019-02-07T07:19:58.997Z,96.10
2019-02-07T07:22:29.914Z,95.40
2019-02-07T07:25:06.438Z,94.90
2019-02-07T07:27:40.198Z,95.30
2019-02-07T07:30:34.011Z,95.30
2019-02-07T07:33:23.212Z,94.70
2019-02-07T07:36:10.839Z,95.20
2019-02-07T07:38:50.134Z,94.60
2019-02-07T07:41:23.914Z,94.60
2019-02-07T07:44:03.642Z,94.70
2019-02-07T07:46:46.650Z,94.30
2019-02-07T07:49:17.586Z,94.00
2019-02-07T07:51:48.432Z,94.10
2019-02-07T07:54:34.615Z,93.90
2019-02-07T08:00:03.628Z,93.60
2019-02-07T08:02:40.542Z,93.10
2019-02-07T08:05:20.664Z,93.60
2019-02-07T08:08:00.363Z,93.00
2019-02-07T08:10:46.892Z,92.90
2019-02-07T08:13:34.419Z,92.90
2019-02-07T08:16:05.358Z,92.20
2019-02-07T08:18:46.686Z,92.30
2019-02-07T08:21:29.684Z,92.70
2019-02-07T08:24:16.801Z,91.90
2019-02-07T08:26:47.643Z,91.80
2019-02-07T08:29:34.450Z,92.20
2019-02-07T08:32:14.134Z,92.40
2019-02-07T08:34:59.943Z,91.90
2019-02-07T08:37:43.237Z,92.10
2019-02-07T08:40:23.387Z,92.40
2019-02-07T08:42:58.511Z,92.40
2019-02-07T08:45:31.862Z,92.00
2019-02-07T08:48:04.024Z,91.60
2019-02-07T08:50:35.150Z,91.70
2019-02-07T08:53:06.647Z,92.00
2019-02-07T08:55:41.240Z,91.60
2019-02-07T08:58:12.125Z,91.40
2019-02-07T09:00:58.124Z,92.20
2019-02-07T09:03:29.078Z,91.50
2019-02-07T09:06:00.003Z,91.70
2019-02-07T09:08:33.617Z,91.60
2019-02-07T09:11:10.598Z,91.30
2019-02-07T09:13:56.826Z,91.40
2019-02-07T09:16:27.820Z,91.20
2019-02-07T09:19:04.453Z,90.60
2019-02-07T09:21:53.953Z,90.90
2019-02-07T09:27:21.441Z,90.50
2019-02-07T09:30:11.116Z,90.40
2019-02-07T09:32:58.576Z,90.30
2019-02-07T09:35:29.529Z,87.20
2019-02-07T09:38:16.917Z,89.20
2019-02-07T09:40:50.438Z,90.30
2019-02-07T09:43:27.242Z,87.80
2019-02-07T09:46:16.574Z,88.80
2019-02-07T09:48:53.030Z,89.70
2019-02-07T09:51:25.824Z,89.10
2019-02-07T09:54:02.942Z,88.20
2019-02-07T09:56:50.018Z,88.70
2019-02-07T09:59:39.180Z,87.20
2019-02-07T10:02:12.840Z,88.20
2019-02-07T10:04:58.755Z,89.10
2019-02-07T10:07:41.684Z,86.80
2019-02-07T10:10:17.997Z,86.20
2019-02-07T10:13:03.788Z,87.10
2019-02-07T10:15:51.392Z,87.60
2019-02-07T10:21:27.448Z,87.60
2019-02-07T10:24:06.757Z,87.60
2019-02-07T10:26:40.217Z,88.70
2019-02-07T10:29:11.040Z,88.80
2019-02-07T10:31:57.352Z,88.50
2019-02-07T10:34:30.936Z,87.00
2019-02-07T10:37:01.816Z,87.60
2019-02-07T10:39:51.064Z,88.40
2019-02-07T10:42:38.064Z,87.20
2019-02-07T10:45:30.422Z,87.50
2019-02-07T10:48:04.061Z,87.30
2019-02-07T10:50:46.734Z,86.00
2019-02-07T10:53:17.551Z,86.60
2019-02-07T10:55:51.184Z,85.70
2019-02-07T10:58:38.362Z,87.30
2019-02-07T11:01:11.992Z,86.70
2019-02-07T11:03:59.106Z,83.90
2019-02-07T11:06:32.411Z,84.90
2019-02-07T11:09:09.014Z,84.60
2019-02-07T11:11:39.943Z,84.00
2019-02-07T11:14:13.593Z,84.20
2019-02-07T11:16:44.455Z,84.00
2019-02-07T11:19:21.523Z,83.60
2019-02-07T11:22:06.281Z,82.40
2019-02-07T11:24:54.764Z,82.10
2019-02-07T11:27:25.670Z,82.50
2019-02-07T11:30:13.035Z,82.40
2019-02-07T11:32:43.929Z,82.30
2019-02-07T11:35:14.750Z,81.80
2019-02-07T11:38:05.151Z,82.60
2019-02-07T11:43:38.786Z,81.10
2019-02-07T11:46:18.859Z,82.50
2019-02-07T11:48:52.617Z,81.20
2019-02-07T11:51:26.514Z,81.80
2019-02-07T11:53:57.442Z,83.30
2019-02-07T11:56:31.926Z,82.50
2019-02-07T11:59:21.886Z,81.90
2019-02-07T12:02:08.844Z,81.10
2019-02-07T12:04:37.306Z,81.10
2019-02-07T12:07:11.110Z,81.80
2019-02-07T12:09:58.214Z,80.90
2019-02-07T12:12:34.781Z,81.20
2019-02-07T12:15:11.582Z,80.80
2019-02-07T12:17:45.362Z,80.90
2019-02-07T12:20:21.882Z,80.40
2019-02-07T12:23:11.512Z,79.40
2019-02-07T12:25:49.029Z,79.50
2019-02-07T12:31:29.220Z,80.00
2019-02-07T12:34:03.028Z,79.80
2019-02-07T12:36:40.018Z,78.00
2019-02-07T12:39:14.105Z,77.70
2019-02-07T12:41:45.056Z,78.50
2019-02-07T12:44:21.739Z,79.00
2019-02-07T12:47:04.543Z,79.00
2019-02-07T12:49:35.355Z,78.90
2019-02-07T12:52:09.851Z,77.90
2019-02-07T12:54:43.492Z,77.60
2019-02-07T12:57:23.158Z,76.80
2019-02-07T13:00:03.122Z,76.30
2019-02-07T13:02:38.529Z,75.90
2019-02-07T13:05:29.270Z,74.90
2019-02-07T13:11:02.735Z,75.60
2019-02-07T13:13:39.370Z,75.00
2019-02-07T13:16:18.812Z,75.20
2019-02-07T13:19:04.537Z,75.60
2019-02-07T13:21:44.335Z,76.70
2019-02-07T13:24:18.008Z,76.10
2019-02-07T13:26:48.895Z,77.00
2019-02-07T13:29:23.359Z,77.00
2019-02-07T13:32:10.197Z,76.50
2019-02-07T13:34:57.490Z,77.00
2019-02-07T13:37:37.537Z,76.90
2019-02-07T13:40:14.242Z,76.90
2019-02-07T13:42:50.923Z,77.80
2019-02-07T13:45:33.989Z,77.30
2019-02-07T13:48:10.971Z,77.50
2019-02-07T13:50:47.644Z,77.60
2019-02-07T13:56:06.367Z,76.80
2019-02-07T13:58:55.483Z,76.20
2019-02-07T14:01:36.035Z,75.70
2019-02-07T14:04:07.040Z,76.00
2019-02-07T14:06:41.048Z,76.80
2019-02-07T14:09:18.123Z,76.70
2019-02-07T14:11:52.480Z,75.20
2019-02-07T14:14:39.053Z,76.20
2019-02-07T14:17:16.228Z,77.00
2019-02-07T14:19:47.519Z,74.40
2019-02-07T14:22:35.423Z,74.90
2019-02-07T14:25:10.130Z,74.50
2019-02-07T14:27:40.999Z,72.60
2019-02-07T14:30:25.920Z,73.70
2019-02-07T14:32:56.810Z,73.60
2019-02-07T14:35:27.696Z,74.20
2019-02-07T14:37:58.534Z,74.30
2019-02-07T14:40:32.451Z,75.40
2019-02-07T14:43:09.180Z,75.50
2019-02-07T14:45:40.007Z,76.20
2019-02-07T14:48:28.688Z,76.40
2019-02-07T14:50:59.399Z,76.20
2019-02-07T14:53:28.544Z,76.80
2019-02-07T14:55:59.377Z,76.30
2019-02-07T14:58:28.625Z,76.70
2019-02-07T15:00:57.809Z,75.90
2019-02-07T15:03:27.549Z,76.30
2019-02-07T15:05:56.802Z,77.30
2019-02-07T15:08:26.088Z,77.50
2019-02-07T15:10:55.359Z,77.20
2019-02-07T15:13:24.621Z,77.30
2019-02-07T15:15:53.795Z,77.80
2019-02-07T15:18:23.436Z,78.50
2019-02-07T15:20:52.630Z,79.20
2019-02-07T15:23:21.896Z,79.10
2019-02-07T15:25:51.137Z,79.00
2019-02-07T15:28:20.417Z,78.80
2019-02-07T15:30:49.692Z,78.60
2019-02-07T15:33:19.342Z,79.50
2019-02-07T15:35:49.520Z,78.60
2019-02-07T15:38:18.798Z,78.90
2019-02-07T15:40:48.062Z,79.20
2019-02-07T15:43:17.300Z,79.00
2019-02-07T15:45:46.559Z,80.20
2019-02-07T15:48:15.831Z,80.60
2019-02-07T15:50:45.178Z,81.00
2019-02-07T15:53:14.417Z,80.90
2019-02-07T15:55:43.695Z,81.70
2019-02-07T15:58:12.963Z,82.00
2019-02-07T16:00:43.857Z,82.80
2019-02-07T16:03:24.285Z,82.70
2019-02-07T16:05:53.520Z,82.30
2019-02-07T16:08:22.952Z,82.20
2019-02-07T16:10:52.200Z,82.70
2019-02-07T16:13:21.442Z,82.70
2019-02-07T16:15:51.020Z,82.70
2019-02-07T16:18:20.321Z,81.80
2019-02-07T16:20:49.505Z,82.10
2019-02-07T16:23:18.750Z,82.60
2019-02-07T16:25:48.013Z,83.20
2019-02-07T16:28:19.778Z,83.00
2019-02-07T16:30:48.264Z,83.30
2019-02-07T16:33:17.610Z,82.80
2019-02-07T16:35:46.865Z,83.10
2019-02-07T16:38:16.185Z,82.80
2019-02-07T16:40:45.472Z,82.80
2019-02-07T16:43:14.807Z,83.00
2019-02-07T16:45:44.356Z,82.90
2019-02-07T16:48:13.676Z,83.40
2019-02-07T16:50:42.954Z,84.30
2019-02-07T16:53:13.206Z,84.50
2019-02-07T16:55:42.399Z,83.90
2019-02-07T16:58:11.709Z,83.80
2019-02-07T17:00:41.392Z,84.30
2019-02-07T17:03:10.817Z,85.60
2019-02-07T17:05:40.055Z,85.10
2019-02-07T17:08:09.357Z,85.20
2019-02-07T17:10:40.176Z,85.60
2019-02-07T17:13:13.422Z,85.90
2019-02-07T17:15:42.782Z,85.90
2019-02-07T17:18:12.036Z,86.00
2019-02-07T17:20:41.264Z,87.10
2019-02-07T17:23:10.499Z,85.80
2019-02-07T17:25:39.787Z,86.10
2019-02-07T17:28:09.081Z,86.70
2019-02-07T17:30:38.356Z,87.20
2019-02-07T17:33:07.695Z,87.10
2019-02-07T17:35:37.086Z,87.00
2019-02-07T17:38:06.454Z,86.60
2019-02-07T17:40:35.797Z,85.70
2019-02-07T17:43:05.767Z,86.00
2019-02-07T17:45:35.475Z,85.70
2019-02-07T17:48:05.730Z,86.10
2019-02-07T17:50:36.600Z,85.80
2019-02-07T17:53:08.739Z,85.40
2019-02-07T17:55:38.075Z,85.50
2019-02-07T17:58:07.854Z,85.60
2019-02-07T18:01:00.183Z,86.10
2019-02-07T18:03:29.489Z,86.10
2019-02-07T18:05:58.782Z,86.40
2019-02-07T18:08:28.444Z,86.10
2019-02-07T18:10:57.710Z,87.10
2019-02-07T18:13:28.673Z,86.60
2019-02-07T18:15:58.100Z,87.00
2019-02-07T18:18:28.987Z,87.30
2019-02-07T18:20:58.242Z,87.30
2019-02-07T18:23:28.000Z,87.70
2019-02-07T18:26:00.223Z,88.00
2019-02-07T18:28:32.385Z,88.00
2019-02-07T18:31:03.439Z,88.30
2019-02-07T18:33:33.463Z,88.40
2019-02-07T18:36:02.663Z,89.00
2019-02-07T18:38:33.125Z,89.00
2019-02-07T18:41:02.457Z,89.00
2019-02-07T18:43:31.720Z,89.10
2019-02-07T18:46:03.081Z,89.90
2019-02-07T18:48:32.343Z,89.60
2019-02-07T18:51:08.810Z,90.10
2019-02-07T18:53:39.327Z,90.30
2019-02-07T18:56:11.578Z,90.10
2019-02-07T18:58:40.848Z,90.20
2019-02-07T19:01:10.087Z,90.30
2019-02-07T19:03:39.338Z,90.40
2019-02-07T19:06:08.833Z,90.70
2019-02-07T19:08:38.103Z,90.80
2019-02-07T19:11:07.359Z,90.90
2019-02-07T19:13:36.605Z,90.80
2019-02-07T19:16:06.145Z,90.90
2019-02-07T19:18:35.396Z,91.30
2019-02-07T19:21:05.438Z,91.20
2019-02-07T19:23:37.406Z,91.20
2019-02-07T19:26:09.307Z,91.20
2019-02-07T19:28:40.484Z,91.70
2019-02-07T19:31:09.741Z,91.20
2019-02-07T19:33:39.090Z,90.80
2019-02-07T19:36:08.431Z,90.70
2019-02-07T19:38:37.676Z,90.90
2019-02-07T19:41:07.932Z,91.00
2019-02-07T19:43:37.249Z,90.80
2019-02-07T19:46:06.530Z,90.60
2019-02-07T19:48:36.973Z,90.70
2019-02-07T19:51:07.904Z,90.90
2019-02-07T19:53:37.198Z,90.90
2019-02-07T19:56:06.443Z,90.70
2019-02-07T19:58:35.711Z,90.90
2019-02-07T20:01:06.321Z,91.00
2019-02-07T20:03:35.834Z,91.10
2019-02-07T20:06:07.241Z,91.30
2019-02-07T20:08:37.592Z,91.20
2019-02-07T20:11:09.473Z,91.30
2019-02-07T20:13:40.436Z,91.30
2019-02-07T20:16:09.839Z,91.70
2019-02-07T20:18:39.441Z,91.70
2019-02-07T20:21:10.411Z,91.90
2019-02-07T20:23:41.349Z,92.20
2019-02-07T20:26:10.985Z,92.20
2019-02-07T20:28:41.942Z,92.40
2019-02-07T20:31:12.178Z,92.30
2019-02-07T20:33:45.619Z,92.20
2019-02-07T20:36:14.900Z,92.30
2019-02-07T20:38:47.054Z,92.60
2019-02-07T20:41:16.433Z,92.80
2019-02-07T20:43:48.815Z,92.90
2019-02-07T20:46:20.365Z,92.80
2019-02-07T20:48:53.524Z,92.60
2019-02-07T20:51:23.090Z,92.70
2019-02-07T20:53:52.499Z,92.70
2019-02-07T20:56:23.371Z,92.60
2019-02-07T20:58:52.741Z,93.10
2019-02-07T21:01:23.757Z,92.80
2019-02-07T21:03:56.202Z,93.10
2019-02-07T21:06:25.605Z,92.80
2019-02-07T21:08:56.617Z,93.30
2019-02-07T21:11:26.398Z,93.10
2019-02-07T21:13:55.696Z,93.00
2019-02-07T21:16:26.997Z,92.90
2019-02-07T21:18:56.638Z,93.00
2019-02-07T21:21:25.897Z,92.90
2019-02-07T21:23:55.154Z,92.80
2019-02-07T21:26:24.814Z,92.80
2019-02-07T21:28:54.159Z,92.50
2019-02-07T21:31:23.429Z,92.50
2019-02-07T21:33:52.771Z,92.80
2019-02-07T21:36:22.147Z,92.50
2019-02-07T21:38:51.463Z,92.50
2019-02-07T21:41:20.699Z,92.40
2019-02-07T21:43:50.246Z,92.30
2019-02-07T21:46:19.573Z,92.40
2019-02-07T21:48:49.713Z,92.40
2019-02-07T21:51:19.665Z,92.50
2019-02-07T21:53:49.052Z,92.40
2019-02-07T21:56:18.374Z,92.40
2019-02-07T21:58:47.689Z,92.40
2019-02-07T22:01:17.111Z,92.50
2019-02-07T22:03:46.427Z,92.50
2019-02-07T22:06:15.830Z,92.60
2019-02-07T22:08:45.257Z,92.80
2019-02-07T22:11:14.461Z,92.50
2019-02-07T22:13:45.283Z,92.70
2019-02-07T22:16:14.493Z,92.50
2019-02-07T22:18:43.873Z,92.50
2019-02-07T22:21:13.547Z,92.40
2019-02-07T22:23:42.903Z,92.50
2019-02-07T22:26:12.084Z,92.80
2019-02-07T22:28:41.345Z,92.70
2019-02-07T22:31:10.581Z,92.60
2019-02-07T22:33:39.909Z,92.80
2019-02-07T22:36:09.184Z,92.90
2019-02-07T22:38:38.370Z,92.80
2019-02-07T22:41:07.545Z,92.80
2019-02-07T22:43:36.803Z,92.90
2019-02-07T22:46:06.069Z,93.00
2019-02-07T22:48:35.398Z,93.00
2019-02-07T22:51:04.723Z,93.20
2019-02-07T22:53:33.906Z,93.30
2019-02-07T22:56:03.139Z,93.20
2019-02-07T22:58:32.384Z,93.10
2019-02-07T23:01:04.867Z,93.20
2019-02-07T23:03:37.255Z,93.30
2019-02-07T23:06:06.797Z,93.50
2019-02-07T23:08:36.039Z,93.70
2019-02-07T23:11:06.689Z,93.80
2019-02-07T23:13:35.988Z,93.60
2019-02-07T23:16:06.004Z,93.50
2019-02-07T23:18:35.250Z,93.60
2019-02-07T23:21:05.615Z,93.70
2019-02-07T23:23:34.937Z,93.80
2019-02-07T23:26:04.676Z,93.80
2019-02-07T23:28:33.925Z,93.80
2019-02-07T23:31:03.111Z,93.80
2019-02-07T23:33:32.990Z,93.90
2019-02-07T23:36:04.260Z,93.80
2019-02-07T23:38:33.512Z,93.70
2019-02-07T23:41:02.783Z,93.70
2019-02-07T23:43:33.143Z,94.10
2019-02-07T23:46:02.407Z,94.00
2019-02-07T23:48:31.680Z,94.10
2019-02-07T23:51:01.414Z,94.40
2019-02-07T23:53:30.670Z,94.50
2019-02-07T23:55:59.938Z,94.50
2019-02-07T23:58:29.208Z,94.60
